Time;durP1;ratioP1;P1;durP2;ratioP2;P2;SDS_P1;SDS_P2;PMS_P1;PMS_P2;Temp;Humidity;BMP_temperature;BMP_pressure;BME280_temperature;BME280_humidity;BME280_pressure;Samples;Min_cycle;Max_cycle;Signal;HPM_P1;HPM_P2
2022/08/11 00:01:26;;;;;;;8.07;3.20;;;20.30;81.20;;;;;;4955919;29;20399;-77
2022/08/11 00:03:57;;;;;;;10.68;3.22;;;20.20;81.10;;;;;;4954113;29;20396;-76
2022/08/11 00:06:28;;;;;;;9.13;3.30;;;20.20;81.90;;;;;;4955116;29;20055;-76
2022/08/11 00:08:55;;;;;;;8.70;3.10;;;20.20;81.80;;;;;;4937462;29;20098;-76
2022/08/11 00:11:31;;;;;;;6.30;3.25;;;20.30;82.00;;;;;;4957135;29;20023;-76
2022/08/11 00:13:58;;;;;;;8.25;3.60;;;20.20;82.00;;;;;;4954815;29;20035;-77
2022/08/11 00:16:25;;;;;;;8.50;3.50;;;20.20;82.50;;;;;;4953762;29;20019;-75
2022/08/11 00:18:53;;;;;;;5.38;3.28;;;20.30;82.10;;;;;;4954658;29;20031;-78
2022/08/11 00:21:21;;;;;;;7.05;3.35;;;20.40;81.60;;;;;;4955264;29;20019;-77
2022/08/11 00:24:00;;;;;;;9.95;3.03;;;20.50;81.70;;;;;;4954300;29;20032;-76
2022/08/11 00:26:27;;;;;;;7.50;3.60;;;20.50;81.30;;;;;;4957235;28;20027;-76
2022/08/11 00:28:54;;;;;;;6.35;3.33;;;20.40;81.70;;;;;;4961639;29;20031;-77
2022/08/11 00:31:30;;;;;;;4.68;3.22;;;20.40;81.80;;;;;;4961535;29;20435;-77
2022/08/11 00:33:58;;;;;;;7.85;3.15;;;20.40;81.70;;;;;;4957827;29;20086;-77
2022/08/11 00:36:38;;;;;;;9.60;4.00;;;20.30;81.70;;;;;;4958199;29;20089;-77
2022/08/11 00:39:05;;;;;;;11.32;3.55;;;20.40;81.80;;;;;;4957011;29;20050;-76
2022/08/11 00:41:40;;;;;;;6.25;3.47;;;20.30;82.10;;;;;;4957348;29;20024;-76
2022/08/11 00:44:34;;;;;;;5.88;3.42;;;20.30;82.40;;;;;;4958653;29;20102;-77
2022/08/11 00:47:27;;;;;;;10.53;3.17;;;20.20;82.80;;;;;;4959472;29;20377;-76
2022/08/11 00:50:14;;;;;;;5.80;3.20;;;20.20;82.60;;;;;;4962823;29;20031;-77
2022/08/11 00:53:07;;;;;;;6.50;3.10;;;20.10;83.20;;;;;;4947986;29;20034;-76
2022/08/11 00:55:59;;;;;;;5.53;2.83;;;20.00;83.90;;;;;;4957471;29;20102;-76
2022/08/11 00:59:02;;;;;;;8.02;3.17;;;19.90;84.30;;;;;;4959940;29;20059;-76
2022/08/11 01:02:04;;;;;;;7.30;3.42;;;19.80;84.60;;;;;;4960754;29;20091;-77
2022/08/11 01:05:14;;;;;;;6.82;3.53;;;19.70;84.90;;;;;;4959487;29;20035;-76
2022/08/11 01:08:07;;;;;;;6.93;3.00;;;19.80;85.90;;;;;;4903548;29;20041;-77
2022/08/11 01:10:58;;;;;;;4.88;3.35;;;19.70;85.20;;;;;;4946209;29;20031;-75
2022/08/11 01:14:02;;;;;;;8.07;3.60;;;19.70;86.50;;;;;;4961315;29;20086;-77
2022/08/11 01:16:59;;;;;;;6.30;2.80;;;19.80;86.30;;;;;;4959596;29;20047;-77
2022/08/11 01:19:36;;;;;;;8.68;3.50;;;19.70;86.00;;;;;;4957228;29;20043;-76
2022/08/11 01:22:24;;;;;;;5.30;3.20;;;19.70;86.60;;;;;;4956559;29;20118;-76
2022/08/11 01:24:59;;;;;;;6.70;2.78;;;19.60;86.70;;;;;;4956746;29;20395;-76
2022/08/11 01:27:47;;;;;;;6.25;3.15;;;19.50;86.70;;;;;;4939683;29;20043;-77
2022/08/11 01:30:44;;;;;;;5.50;3.05;;;19.50;87.70;;;;;;4957333;29;20031;-75
2022/08/11 01:33:45;;;;;;;9.57;3.40;;;19.40;88.40;;;;;;4957087;29;20447;-75
2022/08/11 01:36:40;;;;;;;4.20;2.88;;;19.50;87.90;;;;;;4880675;29;20116;-76
2022/08/11 01:39:22;;;;;;;4.88;3.00;;;19.40;88.50;;;;;;4955376;29;20449;-75
2022/08/11 01:45:21;;;;;;;11.27;3.50;;;19.30;89.70;;;;;;4937321;28;20078;-75
2022/08/11 01:48:26;;;;;;;7.88;3.40;;;19.20;90.30;;;;;;4953624;29;20027;-76
2022/08/11 01:50:55;;;;;;;11.33;3.30;;;19.10;90.80;;;;;;4938055;29;20502;-76
2022/08/11 01:53:41;;;;;;;6.03;3.40;;;19.00;91.30;;;;;;4956999;29;20054;-77
2022/08/11 01:56:32;;;;;;;7.93;3.40;;;18.90;91.60;;;;;;4923356;29;20055;-75
2022/08/11 01:59:23;;;;;;;7.57;3.97;;;18.90;91.80;;;;;;4937378;29;20028;-73
2022/08/11 02:01:59;;;;;;;5.70;3.03;;;19.00;92.10;;;;;;4939358;29;20391;-76
2022/08/11 02:04:44;;;;;;;9.88;3.40;;;19.00;92.30;;;;;;4957024;29;20031;-74
2022/08/11 02:07:18;;;;;;;9.13;3.45;;;19.00;92.70;;;;;;4956475;29;20410;-77
2022/08/11 02:13:11;;;;;;;6.28;3.42;;;19.00;92.80;;;;;;4957972;28;20062;-76
2022/08/11 02:15:55;;;;;;;7.40;3.25;;;18.90;93.20;;;;;;4965823;28;20126;-76
2022/08/11 02:24:22;;;;;;;5.80;3.30;;;18.70;94.60;;;;;;4962314;28;20038;-76
2022/08/11 02:27:01;;;;;;;6.10;3.55;;;18.70;94.70;;;;;;4961788;28;20058;-75
2022/08/11 02:30:19;;;;;;;7.63;3.50;;;18.60;95.10;;;;;;4963454;28;20054;-76
2022/08/11 02:33:22;;;;;;;7.55;3.92;;;18.60;95.60;;;;;;4938583;28;20078;-75
2022/08/11 02:35:57;;;;;;;5.60;3.53;;;18.40;96.40;;;;;;4948232;28;20490;-77
2022/08/11 02:38:31;;;;;;;11.30;3.90;;;18.30;97.20;;;;;;4948449;28;20038;-76
2022/08/11 02:44:06;;;;;;;9.18;3.72;;;18.10;98.40;;;;;;4948629;28;20030;-77
2022/08/11 02:46:48;;;;;;;10.25;3.95;;;18.10;99.20;;;;;;4962674;28;20031;-76
2022/08/11 02:49:52;;;;;;;12.63;4.03;;;18.00;99.70;;;;;;4962695;28;20031;-76
2022/08/11 02:52:30;;;;;;;9.82;3.63;;;17.90;99.90;;;;;;4964050;28;20054;-75
2022/08/11 02:55:20;;;;;;;6.03;3.63;;;17.80;99.90;;;;;;4945497;28;20110;-76
2022/08/11 02:57:58;;;;;;;5.47;3.38;;;17.80;99.90;;;;;;4965589;28;20030;-77
2022/08/11 03:00:28;;;;;;;8.15;3.58;;;17.70;99.90;;;;;;4966817;28;20035;-79
2022/08/11 03:03:07;;;;;;;8.68;3.75;;;17.70;99.90;;;;;;4949405;28;20031;-76
2022/08/11 03:05:53;;;;;;;5.63;3.67;;;17.60;99.90;;;;;;4968216;28;20069;-76
2022/08/11 03:08:27;;;;;;;4.90;3.72;;;17.50;99.90;;;;;;4965934;28;20054;-76
2022/08/11 03:17:26;;;;;;;5.82;3.38;;;17.40;99.90;;;;;;4942641;28;20380;-76
2022/08/11 03:20:10;;;;;;;6.93;3.80;;;17.30;99.90;;;;;;4962197;28;20038;-75
2022/08/11 03:22:49;;;;;;;6.50;3.58;;;17.30;99.90;;;;;;4954351;28;20526;-76
2022/08/11 03:25:30;;;;;;;9.85;4.07;;;17.30;99.90;;;;;;4955818;28;20039;-76
2022/08/11 03:28:20;;;;;;;8.70;4.05;;;17.30;99.90;;;;;;4957564;28;20034;-75
2022/08/11 03:30:51;;;;;;;9.52;3.92;;;17.20;99.90;;;;;;4974241;28;20047;-77
2022/08/11 03:36:24;;;;;;;6.53;3.60;;;17.10;99.90;;;;;;4960883;28;20058;-76
2022/08/11 03:39:05;;;;;;;4.63;3.70;;;17.10;99.90;;;;;;4976772;28;20038;-77
2022/08/11 03:41:46;;;;;;;9.93;4.55;;;17.00;99.90;;;;;;4974624;28;20030;-77
2022/08/11 03:44:42;;;;;;;11.45;4.55;;;17.10;99.90;;;;;;4957810;28;20035;-77
2022/08/11 03:47:30;;;;;;;7.20;4.32;;;17.10;99.90;;;;;;4974788;28;20023;-76
2022/08/11 03:50:01;;;;;;;7.13;3.97;;;17.00;99.90;;;;;;4974018;28;20105;-75
2022/08/11 03:53:08;;;;;;;9.57;3.80;;;17.00;99.90;;;;;;4975505;28;20023;-76
2022/08/11 03:55:43;;;;;;;7.32;4.00;;;17.00;99.90;;;;;;4966661;28;20035;-76
2022/08/11 03:58:30;;;;;;;10.73;4.20;;;17.00;99.90;;;;;;4974969;28;20035;-75
2022/08/11 04:01:31;;;;;;;8.60;4.35;;;17.00;99.90;;;;;;4977449;28;20026;-76
2022/08/11 04:04:22;;;;;;;6.65;3.85;;;16.90;99.90;;;;;;4977091;28;20454;-75
2022/08/11 04:07:08;;;;;;;8.40;4.30;;;16.90;99.90;;;;;;4977845;28;20114;-76
2022/08/11 04:09:55;;;;;;;6.95;3.80;;;16.90;99.90;;;;;;4948120;28;20038;-76
2022/08/11 04:13:02;;;;;;;5.47;3.78;;;17.00;99.90;;;;;;4978045;28;20027;-74
2022/08/11 04:18:43;;;;;;;11.48;3.80;;;17.00;99.90;;;;;;4977150;28;20423;-76
2022/08/11 04:21:20;;;;;;;8.93;4.07;;;17.00;99.90;;;;;;4977238;28;20105;-76
2022/08/11 04:24:21;;;;;;;9.23;4.47;;;17.00;99.90;;;;;;4977454;28;20034;-79
2022/08/11 04:27:24;;;;;;;11.05;4.15;;;17.00;99.90;;;;;;4978280;28;20058;-76
2022/08/11 04:30:13;;;;;;;9.13;3.75;;;17.00;99.90;;;;;;4959841;28;20062;-77
2022/08/11 04:33:12;;;;;;;6.20;4.07;;;17.00;99.90;;;;;;4960385;28;20059;-76
2022/08/11 04:35:47;;;;;;;7.28;4.22;;;17.00;99.90;;;;;;4959162;28;20022;-76
2022/08/11 04:38:18;;;;;;;8.35;4.22;;;17.10;99.90;;;;;;4976786;28;20033;-76
2022/08/11 04:41:29;;;;;;;10.00;4.43;;;17.20;99.90;;;;;;4977388;28;20062;-77
2022/08/11 04:44:36;;;;;;;12.68;4.43;;;17.20;99.90;;;;;;4960901;28;20153;-77
2022/08/11 05:06:56;;;;;;;7.53;3.72;;;18.20;99.90;;;;;;5016828;28;20046;-82
2022/08/11 05:09:56;;;;;;;7.78;3.63;;;18.30;99.90;;;;;;4996994;28;20054;-83
2022/08/11 05:12:22;;;;;;;5.80;3.10;;;18.50;99.90;;;;;;5011045;28;20081;-83
2022/08/11 05:34:52;;;;;;;6.45;3.10;;;20.80;98.10;;;;;;5019175;28;20031;-84
2022/08/11 05:37:29;;;;;;;4.75;3.03;;;21.00;97.30;;;;;;4996596;28;20031;-83
2022/08/11 05:57:28;;;;;;;7.28;3.22;;;21.00;96.20;;;;;;5013496;28;20087;-87
2022/08/11 06:00:09;;;;;;;11.98;2.97;;;21.10;95.80;;;;;;5012271;28;20327;-85
2022/08/11 06:02:49;;;;;;;7.25;2.80;;;21.20;95.50;;;;;;5001953;28;20522;-87
2022/08/11 06:05:15;;;;;;;7.97;3.38;;;21.20;94.80;;;;;;5018804;28;20034;-84
2022/08/11 06:07:43;;;;;;;13.98;3.40;;;21.30;95.00;;;;;;5033450;28;20091;-83
2022/08/11 06:10:10;;;;;;;5.25;2.90;;;21.50;94.80;;;;;;5018867;28;20044;-82
2022/08/11 06:12:38;;;;;;;7.50;3.00;;;21.60;94.60;;;;;;4998134;28;20062;-85
2022/08/11 06:15:11;;;;;;;11.32;3.35;;;21.60;94.10;;;;;;5009316;28;20038;-87
2022/08/11 06:17:45;;;;;;;11.30;3.17;;;21.60;94.10;;;;;;5014742;28;20030;-82
2022/08/11 06:20:12;;;;;;;;;;;21.70;93.70;;;;;;5018035;28;20030;-85
2022/08/11 06:22:41;;;;;;;5.82;2.90;;;21.80;93.40;;;;;;5016529;28;19898;-84
2022/08/11 06:25:09;;;;;;;9.40;3.15;;;21.80;93.50;;;;;;4998917;28;20034;-86
2022/08/11 06:27:37;;;;;;;7.53;3.00;;;21.70;93.50;;;;;;5016053;28;19998;-85
2022/08/11 06:30:12;;;;;;;5.40;3.22;;;21.90;93.40;;;;;;4998816;28;20038;-86
2022/08/11 06:32:42;;;;;;;8.27;3.42;;;22.00;93.00;;;;;;4999315;28;20082;-85
2022/08/11 06:35:31;;;;;;;8.75;3.38;;;22.00;92.90;;;;;;5018159;28;20046;-84
2022/08/11 06:38:29;;;;;;;20.90;5.13;;;22.10;92.80;;;;;;4994345;28;20056;-83
2022/08/11 06:41:29;;;;;;;6.68;3.45;;;22.10;92.70;;;;;;4996651;28;20046;-82
2022/08/11 06:44:19;;;;;;;5.47;2.90;;;22.20;92.40;;;;;;5018347;28;20022;-83
2022/08/11 06:46:52;;;;;;;8.60;3.58;;;22.20;92.40;;;;;;5017982;28;20038;-84
2022/08/11 06:52:12;;;;;;;6.25;2.63;;;22.30;92.30;;;;;;5028211;28;20017;-84
2022/08/11 06:54:43;;;;;;;6.70;3.00;;;22.30;92.10;;;;;;5027227;28;20057;-83
2022/08/11 07:00:26;;;;;;;4.95;2.47;;;22.40;92.00;;;;;;5023130;28;20022;-83
2022/08/11 07:03:15;;;;;;;11.00;3.05;;;22.60;91.80;;;;;;5017613;28;20038;-84
2022/08/11 07:06:03;;;;;;;6.72;3.05;;;22.60;91.60;;;;;;5007989;28;20038;-86
2022/08/11 07:17:25;;;;;;;6.60;3.08;;;22.80;91.40;;;;;;5004937;28;20034;-85
2022/08/11 07:31:30;;;;;;;5.28;2.85;;;22.90;91.20;;;;;;5023266;28;20045;-83
2022/08/11 07:34:27;;;;;;;13.40;2.75;;;22.80;91.00;;;;;;4998822;28;20148;-84
2022/08/11 07:36:59;;;;;;;5.88;3.03;;;22.70;91.20;;;;;;5027428;28;20026;-85
2022/08/11 07:39:30;;;;;;;9.52;3.30;;;22.70;91.30;;;;;;5006655;28;20034;-84
2022/08/11 07:41:59;;;;;;;6.55;2.80;;;22.80;91.40;;;;;;4997935;28;20078;-82
2022/08/11 07:44:28;;;;;;;7.50;2.95;;;22.80;91.00;;;;;;5010944;28;20090;-86
2022/08/11 07:52:33;;;;;;;12.40;2.85;;;22.80;91.10;;;;;;5009051;28;20054;-86
2022/08/11 07:55:07;;;;;;;6.20;2.67;;;22.90;90.90;;;;;;5005924;28;20018;-86
2022/08/11 08:19:47;;;;;;;7.40;3.22;;;23.80;88.60;;;;;;5004043;28;20023;-84
2022/08/11 08:22:20;;;;;;;6.03;2.78;;;23.80;88.30;;;;;;5006871;28;20033;-83
2022/08/11 08:24:47;;;;;;;7.80;2.92;;;23.90;88.00;;;;;;5016105;28;20098;-83
2022/08/11 08:27:14;;;;;;;3.83;2.50;;;23.90;88.30;;;;;;5023813;28;20068;-84
2022/08/11 08:32:27;;;;;;;5.63;2.33;;;24.00;88.60;;;;;;5023654;28;20061;-86
2022/08/11 08:34:55;;;;;;;5.70;2.80;;;24.10;87.60;;;;;;5002915;28;20057;-86
2022/08/11 08:37:24;;;;;;;6.00;2.70;;;24.20;88.20;;;;;;5014908;28;20038;-86
2022/08/11 08:39:50;;;;;;;10.73;2.97;;;24.10;88.00;;;;;;4996719;28;20022;-87
2022/08/11 08:42:22;;;;;;;7.43;2.97;;;24.10;87.40;;;;;;5013710;28;20097;-87
2022/08/11 08:44:55;;;;;;;6.10;2.55;;;24.20;87.60;;;;;;5015996;28;20050;-84
2022/08/11 08:47:23;;;;;;;6.40;2.40;;;24.20;87.30;;;;;;5001094;28;20045;-85
2022/08/11 08:49:57;;;;;;;4.93;2.50;;;24.20;87.40;;;;;;4993087;28;20034;-86
2022/08/11 08:52:31;;;;;;;6.82;2.65;;;24.20;87.40;;;;;;5015914;28;20019;-85
2022/08/11 08:55:03;;;;;;;9.60;2.47;;;24.20;87.70;;;;;;5010746;28;20117;-85
2022/08/11 08:57:32;;;;;;;10.15;3.08;;;24.20;87.90;;;;;;5010485;28;20057;-87
2022/08/11 08:59:59;;;;;;;4.50;2.60;;;24.30;86.90;;;;;;5008922;28;20045;-86
2022/08/11 09:02:27;;;;;;;8.45;2.42;;;24.40;85.50;;;;;;5011396;28;20057;-88
2022/08/11 09:04:53;;;;;;;5.20;3.05;;;24.40;85.30;;;;;;4998049;28;20038;-89
2022/08/11 09:07:22;;;;;;;10.23;2.88;;;24.40;83.40;;;;;;4998124;28;20030;-88
2022/08/11 09:09:51;;;;;;;6.38;2.40;;;24.50;83.40;;;;;;4983716;28;20023;-89
2022/08/11 09:12:25;;;;;;;4.97;1.92;;;24.60;81.30;;;;;;4998971;28;20030;-90
2022/08/11 09:15:04;;;;;;;4.97;2.00;;;24.80;79.90;;;;;;5014263;28;20046;-88
2022/08/11 09:17:43;;;;;;;5.72;1.73;;;24.90;78.10;;;;;;4981171;28;20034;-88
2022/08/11 09:20:18;;;;;;;7.13;3.53;;;24.80;78.70;;;;;;4981710;28;20034;-87
2022/08/11 09:28:19;;;;;;;4.90;2.40;;;25.30;77.10;;;;;;5000636;28;20046;-87
2022/08/11 09:30:53;;;;;;;4.78;1.80;;;25.50;76.40;;;;;;4996049;28;20077;-89
2022/08/11 09:33:23;;;;;;;3.40;1.80;;;25.50;75.00;;;;;;4997894;28;20034;-89
2022/08/11 09:35:51;;;;;;;8.55;1.90;;;25.50;74.90;;;;;;5015695;28;20038;-90
2022/08/11 09:41:07;;;;;;;4.82;1.95;;;26.00;74.20;;;;;;4999188;28;20034;-89
2022/08/11 09:46:27;;;;;;;4.55;1.92;;;26.40;73.10;;;;;;5028313;28;20101;-89
2022/08/11 09:48:57;;;;;;;5.82;2.22;;;26.50;72.60;;;;;;5013834;28;20033;-90
2022/08/11 09:54:07;;;;;;;2.03;1.40;;;29.40;68.00;;;;;;5867884;22;20041;-91
2022/08/11 09:59:21;;;;;;;2.72;1.63;;;32.90;58.90;;;;;;4998457;28;20045;-89
2022/08/11 10:01:51;;;;;;;4.82;1.88;;;34.20;55.40;;;;;;5010381;28;20030;-91
2022/08/11 10:04:23;;;;;;;4.70;1.90;;;35.20;53.70;;;;;;5003222;28;20552;-88
2022/08/11 10:07:01;;;;;;;7.15;1.90;;;35.00;52.30;;;;;;5009540;28;20070;-89
2022/08/11 10:09:33;;;;;;;7.03;2.00;;;34.20;52.30;;;;;;5007931;28;20034;-88
2022/08/11 10:12:02;;;;;;;6.78;1.67;;;35.20;51.50;;;;;;4977090;28;20403;-90
2022/08/11 10:17:19;;;;;;;2.75;1.65;;;36.90;48.40;;;;;;5009978;28;20034;-89
2022/08/11 10:19:47;;;;;;;3.63;1.80;;;39.00;46.90;;;;;;5009507;28;20108;-88
2022/08/11 10:27:57;;;;;;;2.22;1.60;;;34.00;48.10;;;;;;4997311;28;20034;-89
2022/08/11 10:36:04;;;;;;;4.25;1.92;;;31.60;50.60;;;;;;4991639;28;20052;-90
2022/08/11 10:38:31;;;;;;;19.70;1.83;;;31.60;50.30;;;;;;4973948;28;20118;-89
2022/08/11 10:43:47;;;;;;;5.50;1.50;;;34.00;47.20;;;;;;4977062;28;20034;-90
2022/08/11 10:49:00;;;;;;;2.80;1.80;;;32.20;48.60;;;;;;4990540;28;20019;-89
2022/08/11 10:59:47;;;;;;;2.83;1.75;;;30.80;50.80;;;;;;5005145;28;20053;-88
2022/08/11 11:02:18;;;;;;;2.22;1.55;;;31.70;50.50;;;;;;5005987;28;20074;-89
2022/08/11 11:05:08;;;;;;;6.25;1.90;;;32.50;48.80;;;;;;5017085;23;20110;-80
2022/08/11 11:08:51;;;;;;;5.35;1.70;;;33.20;48.20;;;;;;5002235;28;20030;-82
2022/08/11 11:10:57;;;;;;;4.45;1.50;;;34.90;47.10;;;;;;5004577;28;20041;-82
2022/08/11 11:17:54;;;;;;;5.35;1.60;;;38.60;43.00;;;;;;5013699;28;20026;-81
2022/08/11 11:19:11;;;;;;;2.78;1.30;;;40.10;42.00;;;;;;4978894;28;20039;-81
2022/08/11 11:21:38;;;;;;;7.85;2.00;;;41.20;40.90;;;;;;4984917;28;20101;-84
2022/08/11 11:24:40;;;;;;;5.75;1.80;;;39.70;40.70;;;;;;4970790;28;20490;-82
2022/08/11 11:27:44;;;;;;;3.38;1.60;;;37.40;41.90;;;;;;5006502;28;20023;-82
2022/08/11 11:30:14;;;;;;;6.82;1.73;;;35.30;43.70;;;;;;4997188;28;20023;-82
2022/08/11 11:32:58;;;;;;;5.25;2.00;;;33.90;44.80;;;;;;5006070;28;20630;-83
2022/08/11 11:35:38;;;;;;;4.47;1.60;;;32.90;45.00;;;;;;4974669;28;20037;-81
2022/08/11 11:38:09;;;;;;;2.78;2.00;;;32.20;46.00;;;;;;4986233;28;20105;-84
2022/08/11 11:40:37;;;;;;;6.50;2.00;;;31.80;46.70;;;;;;4999584;28;20027;-82
2022/08/11 11:43:04;;;;;;;3.08;1.50;;;31.70;47.80;;;;;;4963532;28;20486;-82
2022/08/11 11:45:30;;;;;;;2.78;1.55;;;33.30;46.90;;;;;;4997340;28;20173;-84
2022/08/11 11:47:58;;;;;;;2.85;1.65;;;35.30;45.00;;;;;;5001673;28;20584;-82
2022/08/11 11:50:33;;;;;;;1.67;1.27;;;37.30;43.00;;;;;;5003372;28;20041;-82
2022/08/11 11:53:04;;;;;;;2.15;1.35;;;38.50;41.70;;;;;;5010282;28;20034;-83
2022/08/11 11:55:30;;;;;;;3.45;1.70;;;39.30;40.80;;;;;;5006674;28;20022;-84
2022/08/11 12:03:31;;;;;;;3.08;1.42;;;37.30;40.60;;;;;;5007863;28;20037;-82
2022/08/11 12:05:57;;;;;;;2.65;1.50;;;35.70;41.70;;;;;;4970859;28;20034;-84
2022/08/11 12:08:24;;;;;;;7.15;1.50;;;35.00;42.10;;;;;;5005953;28;20078;-82
2022/08/11 12:13:43;;;;;;;5.63;1.35;;;34.20;43.30;;;;;;5003210;28;20426;-80
2022/08/11 12:16:12;;;;;;;5.28;1.50;;;33.90;43.80;;;;;;4998192;28;20026;-82
2022/08/11 12:18:41;;;;;;;2.55;1.60;;;33.80;43.00;;;;;;5002443;28;20027;-82
2022/08/11 12:21:08;;;;;;;4.13;1.42;;;33.60;43.20;;;;;;4978657;28;20041;-82
2022/08/11 12:29:20;;;;;;;2.10;1.00;;;33.20;42.70;;;;;;5001377;28;20040;-82
2022/08/11 12:31:47;;;;;;;6.57;1.50;;;33.30;42.50;;;;;;5006718;28;20474;-82
2022/08/11 12:34:14;;;;;;;2.50;1.45;;;34.40;41.40;;;;;;5001633;28;20030;-82
2022/08/11 12:36:45;;;;;;;6.47;1.55;;;35.30;41.00;;;;;;5006614;28;20029;-82
2022/08/11 12:45:26;;;;;;;1.85;1.20;;;36.00;40.20;;;;;;4988989;28;20026;-82
2022/08/11 12:45:38;;;;;;;2.53;1.65;;;40.60;38.30;;;;;;5002447;28;20037;-82
2022/08/11 12:53:26;;;;;;;3.53;1.40;;;43.50;36.60;;;;;;5005609;28;20077;-80
2022/08/11 12:58:41;;;;;;;2.05;1.20;;;44.20;35.90;;;;;;4995140;28;20057;-84
2022/08/11 13:06:40;;;;;;;2.17;1.20;;;41.30;36.40;;;;;;5002306;28;20206;-83
2022/08/11 13:09:08;;;;;;;3.50;1.33;;;41.60;36.50;;;;;;4984617;28;20018;-84
2022/08/11 13:14:21;;;;;;;5.60;1.55;;;42.20;36.10;;;;;;4983003;28;20107;-82
2022/08/11 13:19:33;;;;;;;3.30;1.42;;;40.80;36.70;;;;;;5006450;28;20038;-83
2022/08/11 13:22:01;;;;;;;3.83;1.30;;;39.20;37.10;;;;;;4988690;28;20109;-81
2022/08/11 13:24:27;;;;;;;2.90;1.33;;;38.10;37.80;;;;;;4999025;28;20053;-80
2022/08/11 13:26:54;;;;;;;6.43;1.48;;;37.20;38.80;;;;;;4981195;28;20019;-82
2022/08/11 13:29:22;;;;;;;2.55;1.38;;;36.30;39.20;;;;;;4985797;28;20094;-81
2022/08/11 13:31:49;;;;;;;6.60;1.63;;;35.30;40.00;;;;;;5000382;28;20022;-83
2022/08/11 13:34:16;;;;;;;6.60;1.45;;;34.10;41.10;;;;;;4980807;28;20049;-83
2022/08/11 13:36:43;;;;;;;2.72;1.42;;;33.30;42.10;;;;;;4998898;28;20026;-83
2022/08/11 13:39:10;;;;;;;3.25;1.67;;;32.70;42.50;;;;;;4988352;28;20531;-83
2022/08/11 13:41:38;;;;;;;5.10;1.63;;;32.20;42.80;;;;;;4982500;28;20498;-83
2022/08/11 13:44:15;;;;;;;7.35;1.85;;;31.60;43.30;;;;;;5000721;28;20049;-83
2022/08/11 13:46:42;;;;;;;9.02;1.80;;;31.10;44.10;;;;;;4999318;28;20031;-84
2022/08/11 13:49:09;;;;;;;11.00;2.75;;;30.80;44.30;;;;;;4999619;28;20114;-84
2022/08/11 13:51:39;;;;;;;9.23;2.25;;;30.50;45.10;;;;;;4981848;28;20031;-83
2022/08/11 13:54:08;;;;;;;5.93;2.10;;;30.10;46.30;;;;;;4981478;28;20023;-85
2022/08/11 13:56:41;;;;;;;4.68;1.52;;;29.80;47.10;;;;;;5008578;28;20081;-84
2022/08/11 13:59:09;;;;;;;3.40;1.73;;;29.70;47.50;;;;;;5002523;28;20130;-83
2022/08/11 14:01:42;;;;;;;10.23;1.98;;;29.70;47.70;;;;;;4980377;28;20661;-84
2022/08/11 14:04:12;;;;;;;3.72;1.75;;;30.10;47.50;;;;;;4995698;28;20545;-81
2022/08/11 14:06:44;;;;;;;2.25;1.50;;;30.70;46.50;;;;;;4997709;28;20022;-85
2022/08/11 14:09:11;;;;;;;10.77;2.35;;;31.50;45.80;;;;;;4980313;28;20387;-84
2022/08/11 14:14:29;;;;;;;2.92;1.63;;;32.20;44.70;;;;;;4977214;28;20027;-82
2022/08/11 14:16:57;;;;;;;4.22;2.08;;;32.10;44.90;;;;;;4998082;28;20165;-84
2022/08/11 14:19:25;;;;;;;5.93;1.95;;;32.30;44.80;;;;;;5003129;28;20014;-85
2022/08/11 14:22:08;;;;;;;5.43;1.77;;;32.10;44.90;;;;;;4981334;28;20026;-84
2022/08/11 14:24:41;;;;;;;5.03;2.13;;;31.90;45.40;;;;;;4980420;28;20438;-83
2022/08/11 14:27:10;;;;;;;5.68;1.80;;;31.50;46.30;;;;;;4997579;28;20049;-85
2022/08/11 14:29:40;;;;;;;5.32;2.47;;;31.10;46.10;;;;;;4995524;28;20112;-85
2022/08/11 14:32:10;;;;;;;5.05;1.60;;;30.90;46.60;;;;;;5005681;28;20018;-84
2022/08/11 14:34:40;;;;;;;8.60;1.80;;;30.60;46.30;;;;;;5004850;28;20473;-83
2022/08/11 14:37:12;;;;;;;3.17;2.05;;;30.40;46.30;;;;;;4989785;28;20474;-83
2022/08/11 14:39:44;;;;;;;4.80;1.67;;;30.30;47.00;;;;;;5004743;28;20026;-83
2022/08/11 14:48:00;;;;;;;5.53;1.98;;;30.50;47.30;;;;;;5001982;28;20158;-84
2022/08/11 14:50:29;;;;;;;3.25;1.90;;;30.20;47.80;;;;;;4998012;28;20041;-83
2022/08/11 14:53:06;;;;;;;8.95;1.73;;;29.90;47.90;;;;;;4995122;28;20054;-84
2022/08/11 14:58:24;;;;;;;5.35;3.17;;;29.40;48.50;;;;;;4998861;28;20037;-84
2022/08/11 15:00:55;;;;;;;3.78;1.90;;;29.20;48.80;;;;;;4997592;28;20054;-81
2022/08/11 15:03:23;;;;;;;6.72;2.35;;;29.00;49.10;;;;;;4985449;28;20450;-79
2022/08/11 15:06:07;;;;;;;9.43;2.28;;;28.60;52.60;;;;;;5004840;28;20053;-79
2022/08/11 15:08:55;;;;;;;8.10;2.10;;;27.70;55.00;;;;;;5001863;28;20026;-80
2022/08/11 15:17:06;;;;;;;8.70;2.72;;;26.60;55.30;;;;;;4987297;28;20045;-80
2022/08/11 15:17:07;;;;;;;10.52;2.53;;;26.30;55.60;;;;;;4983732;28;20038;-80
2022/08/11 15:24:18;;;;;;;9.38;2.63;;;26.10;55.90;;;;;;5002482;28;20038;-78
2022/08/11 15:25:09;;;;;;;5.20;2.10;;;25.80;56.50;;;;;;5000621;28;20078;-80
2022/08/11 15:38:45;;;;;;;6.88;2.35;;;25.60;57.10;;;;;;4999216;28;20407;-79
2022/08/11 15:46:54;;;;;;;3.47;2.17;;;25.40;57.20;;;;;;4998801;28;20026;-77
2022/08/11 15:49:30;;;;;;;6.53;2.33;;;25.40;57.10;;;;;;5001414;28;20550;-78
2022/08/11 15:52:12;;;;;;;5.47;2.85;;;25.40;57.00;;;;;;5001489;28;20105;-78
2022/08/11 15:54:42;;;;;;;3.80;2.25;;;25.40;57.00;;;;;;5002664;28;20030;-79
2022/08/11 16:04:09;;;;;;;3.97;2.20;;;25.30;57.20;;;;;;4986334;28;20036;-80
2022/08/11 16:05:16;;;;;;;5.55;2.13;;;25.20;56.80;;;;;;4987568;28;20302;-79
2022/08/11 16:07:47;;;;;;;6.60;2.20;;;25.20;57.10;;;;;;4986481;28;20097;-78
2022/08/11 16:10:22;;;;;;;5.43;2.00;;;25.10;57.10;;;;;;4985962;28;20056;-78
2022/08/11 16:16:13;;;;;;;2.78;1.80;;;25.10;57.20;;;;;;4969910;28;20053;-79
2022/08/11 16:18:54;;;;;;;2.10;1.70;;;25.00;57.00;;;;;;4987027;28;20034;-78
2022/08/11 16:21:26;;;;;;;6.00;2.05;;;25.00;56.80;;;;;;4988187;28;20039;-79
2022/08/11 16:23:55;;;;;;;4.93;1.85;;;25.00;56.50;;;;;;4991737;28;20045;-79
2022/08/11 16:26:23;;;;;;;11.70;2.25;;;25.00;56.20;;;;;;5009856;28;20042;-82
2022/08/11 16:28:55;;;;;;;5.40;2.00;;;25.00;56.80;;;;;;5010458;28;20035;-78
2022/08/11 16:31:22;;;;;;;3.83;1.83;;;25.00;56.90;;;;;;4992474;28;20129;-80
2022/08/11 16:33:51;;;;;;;4.38;2.22;;;25.10;56.80;;;;;;5002915;28;20015;-79
2022/08/11 16:39:05;;;;;;;8.40;2.22;;;25.10;57.30;;;;;;5003236;28;20084;-77
2022/08/11 16:47:10;;;;;;;15.10;2.20;;;25.00;57.60;;;;;;5011444;28;20108;-79
2022/08/11 16:49:42;;;;;;;7.50;2.33;;;25.00;57.50;;;;;;5009827;28;20069;-77
2022/08/11 16:52:10;;;;;;;7.75;2.17;;;24.90;58.00;;;;;;5007180;28;20026;-79
2022/08/11 16:54:38;;;;;;;9.52;2.10;;;24.90;57.80;;;;;;5006373;28;20019;-79
2022/08/11 17:00:06;;;;;;;8.52;2.38;;;24.80;57.90;;;;;;5012148;28;20030;-79
2022/08/11 17:14:08;;;;;;;3.33;1.88;;;24.50;57.60;;;;;;5059750;28;20048;-86
2022/08/11 17:16:40;;;;;;;6.82;2.20;;;24.50;57.70;;;;;;5042176;28;20041;-86
2022/08/11 17:19:12;;;;;;;5.75;2.00;;;24.50;57.50;;;;;;5059039;28;20120;-85
2022/08/11 17:24:33;;;;;;;2.97;1.60;;;24.40;57.10;;;;;;5060051;28;20040;-87
2022/08/11 17:27:00;;;;;;;4.55;1.90;;;24.40;57.00;;;;;;5059543;28;20018;-86
2022/08/11 17:29:31;;;;;;;7.38;2.10;;;24.30;57.10;;;;;;5059380;28;20105;-87
2022/08/11 17:37:42;;;;;;;4.28;1.92;;;24.20;57.30;;;;;;5058770;28;20033;-89
2022/08/11 17:40:11;;;;;;;4.15;1.85;;;24.20;57.20;;;;;;5038610;28;20068;-87
2022/08/11 17:48:25;;;;;;;;;;;24.00;58.00;;;;;;5031712;28;20040;-86
2022/08/11 17:51:03;;;;;;;5.18;1.98;;;23.90;58.00;;;;;;5048238;28;20011;-88
2022/08/11 18:01:54;;;;;;;7.32;1.95;;;23.70;58.40;;;;;;5054746;28;20029;-87
2022/08/11 18:04:22;;;;;;;4.55;1.90;;;23.60;58.50;;;;;;5035630;28;20026;-84
2022/08/11 18:06:51;;;;;;;6.15;1.98;;;23.60;58.40;;;;;;5036692;28;20033;-87
